Home > Products > Valid Products > TAF

000
FTUS41 KBGM 070227 AAA
TAFELM
TAF AMD
KELM 070227Z 0702/0724 VRB02KT P6SM SCT250
      TEMPO 0703/0707 2SM BR
     FM070700 00000KT 3/4SM BR OVC002
      TEMPO 0713/0714 2SM BR OVC008
     FM071400 22005KT P6SM SCT250=



000
FTUS41 KBGM 062320
TAFELM
TAF
KELM 062320Z 0700/0724 VRB02KT P6SM SCT250
      TEMPO 0709/0712 2SM BR
     FM071500 22005KT P6SM SCT250=



000
FTUS41 KBGM 062320
TAFITH
TAF
KITH 062320Z 0700/0724 12004KT P6SM SCT250
     FM071500 20005KT P6SM SCT250=



000
FTUS41 KBGM 062320
TAFBGM
TAF
KBGM 062320Z 0700/0724 VRB03KT P6SM SCT250
     FM071500 20005KT P6SM SCT250=



000
FTUS41 KBGM 062320
TAFAVP
TAF
KAVP 062320Z 0700/0724 08003KT P6SM SCT100
     FM071800 22005KT P6SM SCT250=



000
FTUS41 KBGM 062320
TAFSYR
TAF
KSYR 062320Z 0700/0724 VRB03KT P6SM SKC
     FM071200 15004KT P6SM SCT250
     FM071800 21005KT P6SM SCT250=



000
FTUS41 KBGM 061723
TAFELM
TAF
KELM 061723Z 0618/0718 VRB03KT P6SM SCT050 BKN080
     FM062100 VRB03KT P6SM SCT100
     FM070000 VRB02KT P6SM SCT250
      TEMPO 0709/0712 2SM BR=



000
FTUS41 KBGM 061723
TAFELM
TAF
KELM 061723Z 0618/0718 VRB03KT P6SM SCT050 BKN080
     FM062100 VRB03KT P6SM SCT100
     FM070000 VRB02KT P6SM SCT250
      TEMPO 0709/0712 2SM BR=



000
FTUS41 KBGM 061723
TAFAVP
TAF
KAVP 061723Z 0618/0718 VRB03KT P6SM OVC050
     FM070000 08003KT P6SM SCT100=



000
FTUS41 KBGM 061723
TAFAVP
TAF
KAVP 061723Z 0618/0718 VRB03KT P6SM OVC050
     FM070000 08003KT P6SM SCT100=



000
FTUS41 KBGM 061723
TAFSYR
TAF
KSYR 061723Z 0618/0718 VRB05KT P6SM SCT250
     FM070000 VRB03KT P6SM SKC
     FM071200 15004KT P6SM SCT250=



000
FTUS41 KBGM 061723
TAFSYR
TAF
KSYR 061723Z 0618/0718 VRB05KT P6SM SCT250
     FM070000 VRB03KT P6SM SKC
     FM071200 15004KT P6SM SCT250=



000
FTUS41 KBGM 061723
TAFITH
TAF
KITH 061723Z 0618/0718 18007KT P6SM FEW050 SCT250
     FM070000 12004KT P6SM SCT250=



000
FTUS41 KBGM 061723
TAFBGM
TAF
KBGM 061723Z 0618/0718 17005KT P6SM SCT050 SCT100
     FM070000 VRB03KT P6SM SCT250=



000
FTUS41 KBGM 061723
TAFITH
TAF
KITH 061723Z 0618/0718 18007KT P6SM FEW050 SCT250
     FM070000 12004KT P6SM SCT250=



000
FTUS41 KBGM 061723
TAFBGM
TAF
KBGM 061723Z 0618/0718 17005KT P6SM SCT050 SCT100
     FM070000 VRB03KT P6SM SCT250=



000
FTUS41 KBGM 061305 AAA
TAFAVP
TAF AMD
KAVP 061305Z 0613/0712 04003KT P6SM -SHRA SCT015 OVC040
      TEMPO 0613/0616 5SM -SHRA BR
     FM061800 VRB03KT P6SM OVC060
     FM070000 08003KT P6SM SCT100=



000
FTUS41 KBGM 061120
TAFELM
TAF
KELM 061120Z 0612/0712 VRB03KT P6SM OVC050
     FM061800 VRB03KT P6SM SCT050 BKN080
     FM062100 VRB03KT P6SM SCT100
     FM070000 VRB02KT P6SM SCT250
      TEMPO 0709/0712 2SM BR=



000
FTUS41 KBGM 061120
TAFELM
TAF
KELM 061120Z 0612/0712 VRB03KT P6SM OVC050
     FM061800 VRB03KT P6SM SCT050 BKN080
     FM062100 VRB03KT P6SM SCT100
     FM070000 VRB02KT P6SM SCT250
      TEMPO 0709/0712 2SM BR=



000
FTUS41 KBGM 061120
TAFAVP
TAF
KAVP 061120Z 0612/0712 VRB03KT P6SM -SHRA SCT015 OVC040
      TEMPO 0612/0614 5SM -SHRA BR OVC015
     FM061600 VRB03KT P6SM OVC060
     FM070000 VRB03KT P6SM SCT100=



000
FTUS41 KBGM 061120
TAFBGM
TAF
KBGM 061120Z 0612/0712 VRB04KT P6SM BKN040 BKN070
     FM061800 17005KT P6SM SCT050 SCT100
     FM070000 VRB03KT P6SM SCT250=



000
FTUS41 KBGM 061120
TAFITH
TAF
KITH 061120Z 0612/0712 VRB03KT P6SM SCT025 BKN050
     FM061400 15005KT P6SM BKN070
     FM061800 18005KT P6SM SCT050 SCT250
     FM070000 12004KT P6SM SCT250=



000
FTUS41 KBGM 061120
TAFSYR
TAF
KSYR 061120Z 0612/0712 VRB03KT P6SM SCT150 BKN250
     FM061400 VRB05KT P6SM SCT250
     FM070000 VRB03KT P6SM SKC=



000
FTUS41 KBGM 061120
TAFAVP
TAF
KAVP 061120Z 0612/0712 VRB03KT P6SM -SHRA SCT015 OVC040
      TEMPO 0612/0614 5SM -SHRA BR OVC015
     FM061600 VRB03KT P6SM OVC060
     FM070000 VRB03KT P6SM SCT100=



000
FTUS41 KBGM 061120
TAFBGM
TAF
KBGM 061120Z 0612/0712 VRB04KT P6SM BKN040 BKN070
     FM061800 17005KT P6SM SCT050 SCT100
     FM070000 VRB03KT P6SM SCT250=



000
FTUS41 KBGM 061120
TAFITH
TAF
KITH 061120Z 0612/0712 VRB03KT P6SM SCT025 BKN050
     FM061400 15005KT P6SM BKN070
     FM061800 18005KT P6SM SCT050 SCT250
     FM070000 12004KT P6SM SCT250=



000
FTUS41 KBGM 061120
TAFSYR
TAF
KSYR 061120Z 0612/0712 VRB03KT P6SM SCT150 BKN250
     FM061400 VRB05KT P6SM SCT250
     FM070000 VRB03KT P6SM SKC=



000
FTUS41 KBGM 061012 AAB
TAFAVP
TAF AMD
KAVP 061012Z 0610/0706 VRB03KT P6SM -SHRA BKN015 OVC040
     FM061600 VRB03KT P6SM OVC060
     FM062100 VRB03KT P6SM BKN100=



000
FTUS41 KBGM 061010 AAB
TAFITH
TAF AMD
KITH 061010Z 0610/0706 VRB03KT 3SM BR OVC050
     FM061300 17005KT P6SM BKN070
     FM061800 18005KT P6SM SCT250
     FM070000 12004KT P6SM SCT250=



000
FTUS41 KBGM 060854 AAA
TAFSYR
TAF AMD
KSYR 060854Z 0609/0706 VRB03KT P6SM SCT150 BKN250
     FM061200 10004KT P6SM SCT250
     FM070000 VRB02KT P6SM SCT250=



000
FTUS41 KBGM 060854 AAA
TAFAVP
TAF AMD
KAVP 060854Z 0609/0706 VRB03KT P6SM -SHRA OVC040
     FM061500 VRB03KT P6SM OVC060
     FM062100 VRB03KT P6SM BKN100=



000
FTUS41 KBGM 060854 AAA
TAFELM
TAF AMD
KELM 060854Z 0609/0706 VRB03KT P6SM OVC050
      TEMPO 0610/0612 4SM BR
     FM061300 VRB03KT P6SM SCT050 BKN080
     FM061800 VRB03KT P6SM SCT100
     FM070000 VRB02KT P6SM SCT250=



000
FTUS41 KBGM 060854 AAA
TAFELM
TAF AMD
KELM 060854Z 0609/0706 VRB03KT P6SM OVC050
      TEMPO 0610/0612 4SM BR
     FM061300 VRB03KT P6SM SCT050 BKN080
     FM061800 VRB03KT P6SM SCT100
     FM070000 VRB02KT P6SM SCT250=



000
FTUS41 KBGM 060854 AAA
TAFSYR
TAF AMD
KSYR 060854Z 0609/0706 VRB03KT P6SM SCT150 BKN250
     FM061200 10004KT P6SM SCT250
     FM070000 VRB02KT P6SM SCT250=



000
FTUS41 KBGM 060854 AAA
TAFITH
TAF AMD
KITH 060854Z 0609/0706 VRB03KT P6SM BKN040 OVC080
     FM061300 17005KT P6SM BKN100
     FM061800 18005KT P6SM SCT250
     FM070000 12004KT P6SM SCT250=



000
FTUS41 KBGM 060854 AAA
TAFBGM
TAF AMD
KBGM 060854Z 0609/0706 VRB03KT P6SM -SHRA SCT040 OVC070
     FM061200 VRB03KT P6SM SCT040 BKN070
     FM061800 17005KT P6SM SCT080
     FM070000 18003KT P6SM SCT250=



000
FTUS41 KBGM 060854 AAA
TAFITH
TAF AMD
KITH 060854Z 0609/0706 VRB03KT P6SM BKN040 OVC080
     FM061300 17005KT P6SM BKN100
     FM061800 18005KT P6SM SCT250
     FM070000 12004KT P6SM SCT250=



000
FTUS41 KBGM 060854 AAA
TAFBGM
TAF AMD
KBGM 060854Z 0609/0706 VRB03KT P6SM -SHRA SCT040 OVC070
     FM061200 VRB03KT P6SM SCT040 BKN070
     FM061800 17005KT P6SM SCT080
     FM070000 18003KT P6SM SCT250=



000
FTUS41 KBGM 060854 AAA
TAFAVP
TAF AMD
KAVP 060854Z 0609/0706 VRB03KT P6SM -SHRA OVC040
     FM061500 VRB03KT P6SM OVC060
     FM062100 VRB03KT P6SM BKN100=



000
FTUS41 KBGM 060526
TAFELM
TAF
KELM 060526Z 0606/0706 VRB03KT P6SM -SHRA OVC050
     FM060900 VRB03KT P6SM OVC050
      TEMPO 0609/0612 4SM BR
     FM061400 VRB03KT P6SM BKN060
     FM061800 VRB03KT P6SM SCT100
     FM070000 VRB02KT P6SM SCT250=



000
FTUS41 KBGM 060526
TAFSYR
TAF
KSYR 060526Z 0606/0706 VRB03KT P6SM BKN150
     FM061200 10004KT P6SM SCT250
     FM070000 VRB02KT P6SM SCT250=



000
FTUS41 KBGM 060526
TAFAVP
TAF
KAVP 060526Z 0606/0706 VRB03KT P6SM OVC080
     FM061200 03003KT P6SM -SHRA OVC040
     FM061500 VRB03KT P6SM OVC060
     FM062100 VRB03KT P6SM BKN100=



000
FTUS41 KBGM 060526
TAFITH
TAF
KITH 060526Z 0606/0706 VRB03KT P6SM -SHRA OVC070
     FM060900 VRB03KT P6SM OVC050
     FM061300 17005KT P6SM BKN100
     FM061800 18005KT P6SM SCT250
     FM070000 12004KT P6SM SCT250=



000
FTUS41 KBGM 060526
TAFELM
TAF
KELM 060526Z 0606/0706 VRB03KT P6SM -SHRA OVC050
     FM060900 VRB03KT P6SM OVC050
      TEMPO 0609/0612 4SM BR
     FM061400 VRB03KT P6SM BKN060
     FM061800 VRB03KT P6SM SCT100
     FM070000 VRB02KT P6SM SCT250=



000
FTUS41 KBGM 060526
TAFAVP
TAF
KAVP 060526Z 0606/0706 VRB03KT P6SM OVC080
     FM061200 03003KT P6SM -SHRA OVC040
     FM061500 VRB03KT P6SM OVC060
     FM062100 VRB03KT P6SM BKN100=



000
FTUS41 KBGM 060526
TAFSYR
TAF
KSYR 060526Z 0606/0706 VRB03KT P6SM BKN150
     FM061200 10004KT P6SM SCT250
     FM070000 VRB02KT P6SM SCT250=



000
FTUS41 KBGM 060526
TAFITH
TAF
KITH 060526Z 0606/0706 VRB03KT P6SM -SHRA OVC070
     FM060900 VRB03KT P6SM OVC050
     FM061300 17005KT P6SM BKN100
     FM061800 18005KT P6SM SCT250
     FM070000 12004KT P6SM SCT250=



000
FTUS41 KBGM 060526
TAFBGM
TAF
KBGM 060526Z 0606/0706 VRB03KT P6SM -SHRA OVC040
     FM061100 VRB03KT P6SM OVC050
     FM061800 17005KT P6SM SCT080
     FM070000 18003KT P6SM SCT250=



000
FTUS41 KBGM 052329
TAFAVP
TAF
KAVP 052329Z 0600/0624 35005KT P6SM BKN080
     FM060500 VRB03KT P6SM -SHRA OVC080
     FM060900 06004KT 5SM -SHRA BR OVC030
     FM061400 VRB04KT P6SM OVC050=



000
FTUS41 KBGM 052329
TAFBGM
TAF
KBGM 052329Z 0600/0624 34008KT P6SM SCT060 BKN250
     FM060100 04005KT P6SM -SHRA OVC070
     FM060800 10005KT 5SM -SHRA BR OVC030
     FM061300 16006KT P6SM OVC050=



000
FTUS41 KBGM 052329
TAFITH
TAF
KITH 052329Z 0600/0624 VRB04KT P6SM BKN070
     FM060200 VRB03KT P6SM -SHRA OVC070
     FM060800 VRB03KT P6SM OVC050
     FM061300 16005KT P6SM BKN120=



000
FTUS41 KBGM 052329
TAFELM
TAF
KELM 052329Z 0600/0624 VRB04KT P6SM -SHRA OVC050
     FM060600 VRB03KT 5SM -SHRA BR OVC030
     FM061400 VRB03KT P6SM OVC040=



000
FTUS41 KBGM 052329
TAFSYR
TAF
KSYR 052329Z 0600/0624 VRB03KT P6SM BKN120
     FM061300 11005KT P6SM SCT200=



000
FTUS41 KBGM 052141 AAB
TAFBGM
TAF AMD
KBGM 052141Z 0522/0618 34008KT P6SM SCT060 BKN250
     FM060100 04005KT P6SM -RA OVC050
     FM060800 10005KT 5SM -RA BR OVC025
     FM061300 16006KT P6SM OVC025=



000
FTUS41 KBGM 052140 AAA
TAFELM
TAF AMD
KELM 052140Z 0522/0618 03007KT P6SM SCT070 BKN250
     FM060000 VRB04KT P6SM -RA OVC050
     FM060600 VRB03KT 5SM -RA BR OVC025
     FM061400 VRB03KT P6SM OVC040=



000
FTUS41 KBGM 052140 AAA
TAFELM
TAF AMD
KELM 052140Z 0522/0618 03007KT P6SM SCT070 BKN250
     FM060000 VRB04KT P6SM -RA OVC050
     FM060600 VRB03KT 5SM -RA BR OVC025
     FM061400 VRB03KT P6SM OVC040=



000
FTUS41 KBGM 051736
TAFELM
TAF
KELM 051736Z 0518/0618 04004KT P6SM SCT070 BKN250
     FM060200 VRB03KT P6SM -RA OVC050
     FM060600 VRB03KT 5SM -RA BR OVC025
     FM061400 VRB03KT P6SM OVC040=



000
FTUS41 KBGM 051736
TAFAVP
TAF
KAVP 051736Z 0518/0618 35005KT P6SM BKN050
     FM060500 VRB03KT P6SM -RA OVC080
     FM060900 06004KT 5SM -RA BR OVC025=



000
FTUS41 KBGM 051736
TAFSYR
TAF
KSYR 051736Z 0518/0618 32005KT P6SM SCT040 BKN200
     FM060000 VRB03KT P6SM BKN120
     FM061300 11005KT P6SM SCT200=



000
FTUS41 KBGM 051736
TAFBGM
TAF
KBGM 051736Z 0518/0618 34008KT P6SM SCT060 BKN250
     FM060300 04005KT P6SM -RA OVC040
     FM060800 10005KT 5SM -RA BR OVC025
     FM061300 16006KT P6SM OVC025=



000
FTUS41 KBGM 051736
TAFITH
TAF
KITH 051736Z 0518/0618 34006KT P6SM SCT060 BKN250
     FM060400 VRB03KT P6SM -RA OVC080
     FM060800 VRB03KT P6SM OVC080
     FM061300 16005KT P6SM BKN120=



000
FTUS41 KBGM 051320 AAA
TAFAVP
TAF AMD
KAVP 051320Z 0513/0612 36005KT P6SM SCT025 BKN040
      TEMPO 0513/0515 BKN025
     FM051500 35005KT P6SM BKN050
     FM060500 VRB03KT P6SM -RA OVC080
     FM060900 06004KT 5SM -RA BR OVC025=



000
FTUS41 KBGM 051320 AAA
TAFAVP
TAF AMD
KAVP 051320Z 0513/0612 36005KT P6SM SCT025 BKN040
      TEMPO 0513/0515 BKN025
     FM051500 35005KT P6SM BKN050
     FM060500 VRB03KT P6SM -RA OVC080
     FM060900 06004KT 5SM -RA BR OVC025=



000
FTUS41 KBGM 051227 AAA
TAFSYR
TAF AMD
KSYR 051227Z 0512/0612 35005KT P6SM SCT035 BKN200
      TEMPO 0512/0514 3SM BR BKN035
     FM051900 02006KT P6SM SCT060 BKN150
     FM060000 00000KT P6SM OVC120
     FM060800 VRB03KT P6SM OVC070=



000
FTUS41 KBGM 051227 AAA
TAFSYR
TAF AMD
KSYR 051227Z 0512/0612 35005KT P6SM SCT035 BKN200
      TEMPO 0512/0514 3SM BR BKN035
     FM051900 02006KT P6SM SCT060 BKN150
     FM060000 00000KT P6SM OVC120
     FM060800 VRB03KT P6SM OVC070=



000
FTUS41 KBGM 051135
TAFITH
TAF
KITH 051135Z 0512/0612 35004KT P6SM BKN015
      TEMPO 0512/0514 SCT015 OVC035
     FM051400 34007KT P6SM SCT060 BKN250
     FM060300 07003KT P6SM -RA OVC080
     FM060700 07005KT 5SM -RA BR OVC025=



000
FTUS41 KBGM 051135
TAFELM
TAF
KELM 051135Z 0512/0612 03005KT P6SM SCT025 BKN040
     FM051400 04004KT P6SM BKN050 BKN250
     FM060300 07003KT P6SM -RA OVC050
     FM060800 09005KT 5SM -RA BR OVC018=



000
FTUS41 KBGM 051135
TAFBGM
TAF
KBGM 051135Z 0512/0612 36005KT 5SM BR SCT025
     FM051300 36006KT P6SM SCT025 BKN250
     FM051600 01005KT P6SM BKN050 BKN250
     FM060500 04005KT P6SM -RA OVC080
     FM060900 10005KT 5SM -RA OVC015=



000
FTUS41 KBGM 051135
TAFAVP
TAF
KAVP 051135Z 0512/0612 34006KT P6SM OVC090
     FM051500 34004KT P6SM BKN060 OVC200
     FM060500 VRB03KT P6SM -RA OVC080
     FM060900 06004KT 5SM -RA BR OVC025=



000
FTUS41 KBGM 051135
TAFSYR
TAF
KSYR 051135Z 0512/0612 30004KT 3SM BR BKN025
     FM051900 02006KT P6SM SCT060 BKN150
     FM060000 00000KT P6SM OVC120
     FM060800 VRB03KT P6SM OVC070=



000
FTUS41 KBGM 050842 AAB
TAFITH
TAF AMD
KITH 050842Z 0509/0606 36003KT P6SM BKN027
     FM051100 32005KT P6SM SCT035 BKN250
     FM051600 34007KT P6SM SCT060 BKN250
     FM060300 07003KT P6SM -RA OVC080=



000
FTUS41 KBGM 050842 AAB
TAFSYR
TAF AMD
KSYR 050842Z 0509/0606 31005KT P6SM OVC080
     FM051200 36003KT P6SM BKN250
     FM051600 VRB03KT P6SM SCT060 BKN250
     FM060000 00000KT P6SM OVC120=



000
FTUS41 KBGM 050842 AAB
TAFITH
TAF AMD
KITH 050842Z 0509/0606 36003KT P6SM BKN027
     FM051100 32005KT P6SM SCT035 BKN250
     FM051600 34007KT P6SM SCT060 BKN250
     FM060300 07003KT P6SM -RA OVC080=



000
FTUS41 KBGM 050842 AAB
TAFSYR
TAF AMD
KSYR 050842Z 0509/0606 31005KT P6SM OVC080
     FM051200 36003KT P6SM BKN250
     FM051600 VRB03KT P6SM SCT060 BKN250
     FM060000 00000KT P6SM OVC120=



000
FTUS41 KBGM 050842 AAA
TAFAVP
TAF AMD
KAVP 050842Z 0509/0606 00000KT P6SM FEW090 OVC120
     FM051500 34004KT P6SM BKN060 OVC200
     FM060000 VRB03KT P6SM OVC080=



000
FTUS41 KBGM 050842 AAA
TAFELM
TAF AMD
KELM 050842Z 0509/0606 09003KT P6SM OVC025
     FM051200 06003KT P6SM SCT035 BKN250
     FM051600 04004KT P6SM BKN050 BKN250
     FM060300 07003KT P6SM -RA OVC050=



000
FTUS41 KBGM 050842 AAC
TAFBGM
TAF AMD
KBGM 050842Z 0509/0606 32003KT P6SM OVC022
      TEMPO 0509/0512 -SHRA OVC015
     FM051300 36006KT P6SM SCT022 BKN250
     FM051600 01005KT P6SM BKN050 BKN250
     FM060400 04005KT P6SM -RA OVC080=



000
FTUS41 KBGM 050730 AAB
TAFBGM
TAF AMD
KBGM 050730Z 0508/0606 33004KT P6SM SCT028 OVC070
      TEMPO 0508/0509 -SHRA OVC028
     FM050900 VRB05KT P6SM OVC015
     FM051300 36006KT P6SM BKN250
     FM051600 01005KT P6SM BKN050 BKN250
     FM060400 04005KT P6SM -RA OVC080=



000
FTUS41 KBGM 050730 AAB
TAFBGM
TAF AMD
KBGM 050730Z 0508/0606 33004KT P6SM SCT028 OVC070
      TEMPO 0508/0509 -SHRA OVC028
     FM050900 VRB05KT P6SM OVC015
     FM051300 36006KT P6SM BKN250
     FM051600 01005KT P6SM BKN050 BKN250
     FM060400 04005KT P6SM -RA OVC080=



000
FTUS41 KBGM 050729 AAA
TAFITH
TAF AMD
KITH 050729Z 0507/0606 34009KT P6SM OVC027
     FM051000 34003KT P6SM OVC035
     FM051200 32005KT P6SM SCT035 BKN250
     FM051600 34007KT P6SM SCT060 BKN250
     FM060300 07003KT P6SM -RA OVC080=



000
FTUS41 KBGM 050729 AAA
TAFITH
TAF AMD
KITH 050729Z 0507/0606 34009KT P6SM OVC027
     FM051000 34003KT P6SM OVC035
     FM051200 32005KT P6SM SCT035 BKN250
     FM051600 34007KT P6SM SCT060 BKN250
     FM060300 07003KT P6SM -RA OVC080=



000
FTUS41 KBGM 050637 AAA
TAFSYR
TAF AMD
KSYR 050637Z 0507/0606 31007KT P6SM SCT025 OVC035
      TEMPO 0507/0509 OVC025
     FM050900 31004KT P6SM OVC035
     FM051200 36003KT P6SM BKN250
     FM051600 VRB03KT P6SM SCT060 BKN250
     FM060000 00000KT P6SM OVC120=



000
FTUS41 KBGM 050637 AAA
TAFSYR
TAF AMD
KSYR 050637Z 0507/0606 31007KT P6SM SCT025 OVC035
      TEMPO 0507/0509 OVC025
     FM050900 31004KT P6SM OVC035
     FM051200 36003KT P6SM BKN250
     FM051600 VRB03KT P6SM SCT060 BKN250
     FM060000 00000KT P6SM OVC120=



000
FTUS41 KBGM 050535
TAFITH
TAF
KITH 050535Z 0506/0606 02004KT P6SM OVC070
     FM050900 34003KT P6SM OVC035
     FM051200 32005KT P6SM SCT035 BKN250
     FM051600 34007KT P6SM SCT060 BKN250
     FM060300 07003KT P6SM -RA OVC080=



000
FTUS41 KBGM 050535
TAFELM
TAF
KELM 050535Z 0506/0606 00000KT P6SM OVC090
     FM050900 VRB03KT P6SM OVC045
     FM051200 06003KT P6SM SCT035 BKN250
     FM051600 04004KT P6SM BKN050 BKN250
     FM060300 07003KT P6SM -RA OVC050=



000
FTUS41 KBGM 050535
TAFBGM
TAF
KBGM 050535Z 0506/0606 31008KT P6SM OVC090
     FM050900 VRB05KT P6SM OVC015
     FM051300 36006KT P6SM BKN250
     FM051600 01005KT P6SM BKN050 BKN250
     FM060400 04005KT P6SM -RA OVC080=



000
FTUS41 KBGM 050535
TAFAVP
TAF
KAVP 050535Z 0506/0606 17003KT P6SM SCT090 BKN110
     FM050700 28003KT P6SM OVC080
     FM051500 34004KT P6SM BKN060 OVC200
     FM060000 VRB03KT P6SM OVC080=



000
FTUS41 KBGM 050535
TAFSYR
TAF
KSYR 050535Z 0506/0606 30008KT P6SM SCT035 OVC120
     FM050800 31004KT P6SM OVC035
     FM051200 36003KT P6SM BKN250
     FM051600 VRB03KT P6SM SCT060 BKN250
     FM060000 00000KT P6SM OVC120=



000
FTUS41 KBGM 042340
TAFAVP
TAF
KAVP 042340Z 0500/0524 23004KT P6SM OVC100
     FM050700 28003KT P6SM OVC080
     FM051200 34004KT P6SM OVC080
     FM051500 34004KT P6SM -SHRA OVC060=



000
FTUS41 KBGM 042340
TAFELM
TAF
KELM 042340Z 0500/0524 27008KT P6SM OVC080
      TEMPO 0500/0504 -SHRA
     FM050400 28003KT P6SM BKN080 BKN250
     FM051200 06003KT P6SM BKN250=



000
FTUS41 KBGM 042340
TAFSYR
TAF
KSYR 042340Z 0500/0524 27005KT P6SM OVC080
      TEMPO 0500/0504 -SHRA
     FM050400 27007KT P6SM BKN080 BKN250
     FM051200 36007KT P6SM BKN250=



000
FTUS41 KBGM 042340
TAFITH
TAF
KITH 042340Z 0500/0524 33007KT P6SM OVC080
      TEMPO 0500/0504 -SHRA OVC035
     FM051500 32005KT P6SM BKN250=



000
FTUS41 KBGM 042340
TAFBGM
TAF
KBGM 042340Z 0500/0524 24008KT P6SM OVC080
      TEMPO 0501/0505 28008KT -SHRA=



000
FTUS41 KBGM 042340
TAFBGM
TAF

FM050500
 31006KT P6SM BKN080 BKN250
FM051200
 36006KY P6SM BKN250=



000
FTUS41 KBGM 042340
TAFSYR
TAF
KSYR 042340Z 0500/0524 27005KT P6SM OVC080
      TEMPO 0500/0504 -SHRA
     FM050400 27007KT P6SM BKN080 BKN250
     FM051200 36007KT P6SM BKN250=



000
FTUS41 KBGM 042340
TAFELM
TAF
KELM 042340Z 0500/0524 27008KT P6SM OVC080
      TEMPO 0500/0504 -SHRA
     FM050400 28003KT P6SM BKN080 BKN250
     FM051200 06003KT P6SM BKN250=



000
FTUS41 KBGM 042340
TAFAVP
TAF
KAVP 042340Z 0500/0524 23004KT P6SM OVC100
     FM050700 28003KT P6SM OVC080
     FM051200 34004KT P6SM OVC080
     FM051500 34004KT P6SM -SHRA OVC060=



000
FTUS41 KBGM 042340
TAFITH
TAF
KITH 042340Z 0500/0524 33007KT P6SM OVC080
      TEMPO 0500/0504 -SHRA OVC035
     FM051500 32005KT P6SM BKN250=



000
FTUS41 KBGM 042340
TAFBGM
TAF
KBGM 042340Z 0500/0524 24008KT P6SM OVC080
      TEMPO 0501/0505 28008KT -SHRA=



000
FTUS41 KBGM 042340
TAFBGM
TAF

FM050500
 31006KT P6SM BKN080 BKN250
FM051200
 36006KY P6SM BKN250=



000
FTUS41 KBGM 041749
TAFSYR
TAF
KSYR 041749Z 0418/0518 25015G25KT P6SM FEW080
     FM042300 27005KT P6SM OVC050
      TEMPO 0502/0506 -SHRA
     FM051400 36005KT P6SM SCT250=



000
FTUS41 KBGM 041749
TAFELM
TAF
KELM 041749Z 0418/0518 23010G20KT P6SM FEW080
     FM050300 25004KT P6SM OVC050
      TEMPO 0505/0508 -SHRA
     FM051600 03004KT P6SM BKN250=



000
FTUS41 KBGM 041749
TAFAVP
TAF
KAVP 041749Z 0418/0518 23012G23KT P6SM FEW080
     FM050500 23002KT P6SM OVC050
     FM051700 VRB04KT P6SM -SHRA OVC050=



000
FTUS41 KBGM 041749
TAFITH
TAF
KITH 041749Z 0418/0518 21010G20KT P6SM FEW080
     FM050100 22004KT P6SM OVC050
      TEMPO 0504/0508 -SHRA OVC035
     FM051500 32005KT P6SM BKN250=



000
FTUS41 KBGM 041749
TAFBGM
TAF
KBGM 041749Z 0418/0518 23013G23KT P6SM FEW080
     FM050400 23006KT P6SM OVC050
      TEMPO 0505/0509 -SHRA=



000
FTUS41 KBGM 041749
TAFSYR
TAF
KSYR 041749Z 0418/0518 25015G25KT P6SM FEW080
     FM042300 27005KT P6SM OVC050
      TEMPO 0502/0506 -SHRA
     FM051400 36005KT P6SM SCT250=



000
FTUS41 KBGM 041749
TAFITH
TAF
KITH 041749Z 0418/0518 21010G20KT P6SM FEW080
     FM050100 22004KT P6SM OVC050
      TEMPO 0504/0508 -SHRA OVC035
     FM051500 32005KT P6SM BKN250=



000
FTUS41 KBGM 041749
TAFELM
TAF
KELM 041749Z 0418/0518 23010G20KT P6SM FEW080
     FM050300 25004KT P6SM OVC050
      TEMPO 0505/0508 -SHRA
     FM051600 03004KT P6SM BKN250=



000
FTUS41 KBGM 041749
TAFAVP
TAF
KAVP 041749Z 0418/0518 23012G23KT P6SM FEW080
     FM050500 23002KT P6SM OVC050
     FM051700 VRB04KT P6SM -SHRA OVC050=



000
FTUS41 KBGM 041749
TAFBGM
TAF
KBGM 041749Z 0418/0518 23013G23KT P6SM FEW080
     FM050400 23006KT P6SM OVC050
      TEMPO 0505/0509 -SHRA=



000
FTUS41 KBGM 041120
TAFELM
TAF
KELM 041120Z 0412/0512 00000KT P6SM FEW100
     FM041500 23010G20KT P6SM FEW080
     FM050300 25004KT P6SM OVC050
      TEMPO 0507/0511 -SHRA=



000
FTUS41 KBGM 041120
TAFITH
TAF
KITH 041120Z 0412/0512 12005KT P6SM FEW080
     FM041500 21010G20KT P6SM FEW080
     FM050200 22004KT P6SM OVC050
      TEMPO 0506/0510 -SHRA=



000
FTUS41 KBGM 041120
TAFAVP
TAF
KAVP 041120Z 0412/0512 11003KT P6SM SKC
     FM041500 22010G20KT P6SM FEW080
     FM050500 23002KT P6SM OVC050=



000
FTUS41 KBGM 041120
TAFBGM
TAF
KBGM 041120Z 0412/0512 16006KT P6SM FEW100
     FM041500 22010G20KT P6SM FEW080
     FM050400 23006KT P6SM OVC050
      TEMPO 0507/0511 -SHRA=



000
FTUS41 KBGM 041120
TAFAVP
TAF
KAVP 041120Z 0412/0512 11003KT P6SM SKC
     FM041500 22010G20KT P6SM FEW080
     FM050500 23002KT P6SM OVC050=



000
FTUS41 KBGM 041120
TAFBGM
TAF
KBGM 041120Z 0412/0512 16006KT P6SM FEW100
     FM041500 22010G20KT P6SM FEW080
     FM050400 23006KT P6SM OVC050
      TEMPO 0507/0511 -SHRA=



000
FTUS41 KBGM 041120
TAFITH
TAF
KITH 041120Z 0412/0512 12005KT P6SM FEW080
     FM041500 21010G20KT P6SM FEW080
     FM050200 22004KT P6SM OVC050
      TEMPO 0506/0510 -SHRA=



000
FTUS41 KBGM 041120
TAFELM
TAF
KELM 041120Z 0412/0512 00000KT P6SM FEW100
     FM041500 23010G20KT P6SM FEW080
     FM050300 25004KT P6SM OVC050
      TEMPO 0507/0511 -SHRA=



000
FTUS41 KBGM 041120
TAFSYR
TAF
KSYR 041120Z 0412/0512 12004KT P6SM FEW080
     FM041500 25015G25KT P6SM FEW080
     FM050100 27005KT P6SM OVC050
      TEMPO 0505/0509 -SHRA=



000
FTUS41 KBGM 041120
TAFSYR
TAF
KSYR 041120Z 0412/0512 12004KT P6SM FEW080
     FM041500 25015G25KT P6SM FEW080
     FM050100 27005KT P6SM OVC050
      TEMPO 0505/0509 -SHRA=



000
FTUS41 KBGM 040833 AAA
TAFSYR
TAF AMD
KSYR 040833Z 0408/0506 12004KT P6SM FEW080
     FM041500 25015G25KT P6SM FEW080
     FM050100 27005KT P6SM OVC050
      TEMPO 0504/0506 -SHRA=



000
FTUS41 KBGM 040833 AAA
TAFITH
TAF AMD
KITH 040833Z 0408/0506 12005KT P6SM FEW080
     FM041500 21010G20KT P6SM FEW080
     FM050200 22004KT P6SM OVC050
      TEMPO 0504/0506 -SHRA=



000
FTUS41 KBGM 040833 AAA
TAFELM
TAF AMD
KELM 040833Z 0408/0506 00000KT P6SM FEW100
     FM041500 23010G20KT P6SM FEW080
     FM050300 25004KT P6SM OVC050=



000
FTUS41 KBGM 040833 AAA
TAFAVP
TAF AMD
KAVP 040833Z 0408/0506 11003KT P6SM SKC
     FM041500 22010G20KT P6SM FEW080
     FM050500 22004KT P6SM OVC050=



000
FTUS41 KBGM 040833 AAA
TAFBGM
TAF AMD
KBGM 040833Z 0408/0506 16006KT P6SM FEW100
     FM041500 22010G20KT P6SM FEW080
     FM050400 23006KT P6SM OVC050=



000
FTUS41 KBGM 040520
TAFAVP
TAF
KAVP 040520Z 0406/0506 10004KT P6SM SKC
     FM041500 22010G20KT P6SM FEW080
     FM050500 22004KT P6SM OVC050=



000
FTUS41 KBGM 040520
TAFSYR
TAF
KSYR 040520Z 0406/0506 21003KT P6SM FEW080
     FM041500 25015G25KT P6SM FEW080
     FM050100 27005KT P6SM OVC050
      TEMPO 0504/0506 -SHRA=



000
FTUS41 KBGM 040520
TAFITH
TAF
KITH 040520Z 0406/0506 16005KT P6SM FEW080
     FM041500 21010G20KT P6SM FEW080
     FM050200 22004KT P6SM OVC050
      TEMPO 0504/0506 -SHRA=



000
FTUS41 KBGM 040520
TAFELM
TAF
KELM 040520Z 0406/0506 00000KT P6SM FEW100
     FM041500 23010G20KT P6SM FEW080
     FM050300 25004KT P6SM OVC050=



000
FTUS41 KBGM 040520
TAFBGM
TAF
KBGM 040520Z 0406/0506 20004KT P6SM FEW100
     FM041500 22010G20KT P6SM FEW080
     FM050400 23006KT P6SM OVC050=



000
FTUS41 KBGM 040520
TAFSYR
TAF
KSYR 040520Z 0406/0506 21003KT P6SM FEW080
     FM041500 25015G25KT P6SM FEW080
     FM050100 27005KT P6SM OVC050
      TEMPO 0504/0506 -SHRA=



000
FTUS41 KBGM 040520
TAFAVP
TAF
KAVP 040520Z 0406/0506 10004KT P6SM SKC
     FM041500 22010G20KT P6SM FEW080
     FM050500 22004KT P6SM OVC050=



000
FTUS41 KBGM 040520
TAFITH
TAF
KITH 040520Z 0406/0506 16005KT P6SM FEW080
     FM041500 21010G20KT P6SM FEW080
     FM050200 22004KT P6SM OVC050
      TEMPO 0504/0506 -SHRA=



000
FTUS41 KBGM 040520
TAFELM
TAF
KELM 040520Z 0406/0506 00000KT P6SM FEW100
     FM041500 23010G20KT P6SM FEW080
     FM050300 25004KT P6SM OVC050=



000
FTUS41 KBGM 040520
TAFBGM
TAF
KBGM 040520Z 0406/0506 20004KT P6SM FEW100
     FM041500 22010G20KT P6SM FEW080
     FM050400 23006KT P6SM OVC050=



    US Dept of Commerce
    National Oceanic and Atmospheric Administration
    National Weather Service
    1325 East West Highway
    Silver Spring, MD 20910
    Page Author: NWS Internet Services Team
Disclaimer
Information Quality
Credits
Glossary
Privacy Policy
Freedom of Information Act (FOIA)
About Us
Career Opportunities